createdAt,value
2017-08-21T00:00:32.130Z,101130
2017-08-21T00:01:32.200Z,101137
2017-08-21T00:02:33.236Z,101136
2017-08-21T00:03:32.236Z,101129
2017-08-21T00:04:32.315Z,101127
2017-08-21T00:05:32.274Z,101128
2017-08-21T00:06:32.338Z,101130
2017-08-21T00:07:34.110Z,101128
2017-08-21T00:08:33.381Z,101131
2017-08-21T00:09:32.614Z,101130
2017-08-21T00:10:34.370Z,101131
2017-08-21T00:11:34.454Z,101127
2017-08-21T00:12:34.519Z,101135
2017-08-21T00:13:34.424Z,101134
2017-08-21T00:14:33.753Z,101132
2017-08-21T00:15:33.844Z,101129
2017-08-21T00:16:33.827Z,101125
2017-08-21T00:17:32.933Z,101126
2017-08-21T00:18:33.125Z,101127
2017-08-21T00:19:34.890Z,101127
2017-08-21T00:20:33.179Z,101126
2017-08-21T00:21:33.360Z,101125
2017-08-21T00:22:35.008Z,101129
2017-08-21T00:23:35.089Z,101128
2017-08-21T00:24:33.542Z,101128
2017-08-21T00:25:33.474Z,101118
2017-08-21T00:26:34.628Z,101121
2017-08-21T00:27:33.557Z,101123
2017-08-21T00:28:33.652Z,101117
2017-08-21T00:29:34.688Z,101122
2017-08-21T00:30:35.338Z,101124
2017-08-21T00:31:33.824Z,101123
2017-08-21T00:32:34.847Z,101122
2017-08-21T00:33:33.834Z,101122
2017-08-21T00:34:34.034Z,101123
2017-08-21T00:35:35.774Z,101125
2017-08-21T00:36:35.833Z,101124
2017-08-21T00:37:35.181Z,101127
2017-08-21T00:38:35.939Z,101127
2017-08-21T00:39:34.303Z,101123
2017-08-21T00:40:34.390Z,101129
2017-08-21T00:41:34.326Z,101128
2017-08-21T00:42:34.498Z,101126
2017-08-21T00:43:34.556Z,101128
2017-08-21T00:44:35.484Z,101129
2017-08-21T00:45:35.544Z,101120
2017-08-21T00:46:34.718Z,101121
2017-08-21T00:47:36.302Z,101123
2017-08-21T00:48:36.362Z,101121
2017-08-21T00:49:35.673Z,101124
2017-08-21T00:50:35.712Z,101125
2017-08-21T00:51:34.914Z,101122
2017-08-21T00:52:34.880Z,101125
2017-08-21T00:53:35.049Z,101114
2017-08-21T00:54:36.757Z,101117
2017-08-21T00:55:36.695Z,101116
2017-08-21T00:56:36.743Z,101114
2017-08-21T00:57:36.897Z,101112
2017-08-21T00:58:36.861Z,101106
2017-08-21T00:59:35.317Z,101107
2017-08-21T01:00:35.399Z,101111
2017-08-21T01:01:35.399Z,101115
2017-08-21T01:02:36.505Z,101115
2017-08-21T01:03:35.586Z,101113
2017-08-21T01:04:35.637Z,101115
2017-08-21T01:05:37.275Z,101115
2017-08-21T01:06:37.343Z,101113
2017-08-21T01:07:35.827Z,101117
2017-08-21T01:08:37.461Z,101116
2017-08-21T01:09:37.591Z,101116
2017-08-21T01:10:36.929Z,101115
2017-08-21T01:11:37.702Z,101117
2017-08-21T01:12:37.097Z,101117
2017-08-21T01:13:37.341Z,101119
2017-08-21T01:14:36.229Z,101121
2017-08-21T01:15:37.373Z,101114
2017-08-21T01:16:38.732Z,101120
2017-08-21T01:17:37.391Z,101125
2017-08-21T01:18:38.281Z,101126
2017-08-21T01:19:37.665Z,101125
2017-08-21T01:20:37.607Z,101119
2017-08-21T01:21:38.258Z,101121
2017-08-21T01:22:36.526Z,101121
2017-08-21T01:23:36.617Z,101118
2017-08-21T01:24:36.778Z,101119
2017-08-21T01:25:36.672Z,101120
2017-08-21T01:26:38.461Z,101123
2017-08-21T01:27:36.960Z,101121
2017-08-21T01:28:37.913Z,101122
2017-08-21T01:29:37.016Z,101119
2017-08-21T01:30:37.212Z,101112
2017-08-21T01:31:37.143Z,101113
2017-08-21T01:32:38.843Z,101112
2017-08-21T01:33:39.639Z,101113
2017-08-21T01:34:37.349Z,101116
2017-08-21T01:35:39.121Z,101115
2017-08-21T01:36:38.512Z,101115
2017-08-21T01:37:38.354Z,101116
2017-08-21T01:38:38.095Z,101118
2017-08-21T01:39:37.590Z,101117
2017-08-21T01:40:37.635Z,101116
2017-08-21T01:41:40.178Z,101115
2017-08-21T01:42:37.761Z,101110
2017-08-21T01:43:38.356Z,101113
2017-08-21T01:44:37.854Z,101117
2017-08-21T01:45:38.615Z,101109
2017-08-21T01:46:37.938Z,101115
2017-08-21T01:47:37.853Z,101115
2017-08-21T01:48:38.972Z,101118
2017-08-21T01:49:38.844Z,101117
2017-08-21T01:50:37.914Z,101117
2017-08-21T01:51:38.955Z,101121
2017-08-21T01:52:38.087Z,101121
2017-08-21T01:53:39.854Z,101120
2017-08-21T01:54:39.216Z,101118
2017-08-21T01:55:40.010Z,101118
2017-08-21T01:56:39.888Z,101118
2017-08-21T01:57:39.991Z,101118
2017-08-21T01:58:40.096Z,101110
2017-08-21T01:59:40.285Z,101113
2017-08-21T02:00:39.643Z,101113
2017-08-21T02:01:38.538Z,101116
2017-08-21T02:02:38.496Z,101109
2017-08-21T02:03:39.521Z,101106
2017-08-21T02:04:39.495Z,101114
2017-08-21T02:05:40.472Z,101105
2017-08-21T02:06:41.120Z,101114
2017-08-21T02:07:38.816Z,101114
2017-08-21T02:08:38.804Z,101111
2017-08-21T02:09:39.528Z,101112
2017-08-21T02:10:40.247Z,101114
2017-08-21T02:11:40.599Z,101113
2017-08-21T02:12:40.105Z,101115
2017-08-21T02:13:40.186Z,101110
2017-08-21T02:14:40.812Z,101113
2017-08-21T02:15:39.116Z,101115
2017-08-21T02:16:39.158Z,101112
2017-08-21T02:17:39.197Z,101108
2017-08-21T02:18:41.001Z,101105
2017-08-21T02:19:41.013Z,101106
2017-08-21T02:20:41.033Z,101105
2017-08-21T02:21:39.344Z,101104
2017-08-21T02:22:39.545Z,101103
2017-08-21T02:23:39.543Z,101101
2017-08-21T02:24:39.570Z,101104
2017-08-21T02:25:41.292Z,101101
2017-08-21T02:26:39.647Z,101102
2017-08-21T02:27:39.736Z,101103
2017-08-21T02:28:41.487Z,101108
2017-08-21T02:29:41.471Z,101108
2017-08-21T02:30:39.961Z,101106
2017-08-21T02:31:40.944Z,101107
2017-08-21T02:32:40.062Z,101099
2017-08-21T02:33:39.903Z,101102
2017-08-21T02:34:41.000Z,101103
2017-08-21T02:35:41.859Z,101103
2017-08-21T02:36:41.909Z,101097
2017-08-21T02:37:40.179Z,101097
2017-08-21T02:38:40.185Z,101093
2017-08-21T02:39:40.274Z,101092
2017-08-21T02:40:42.115Z,101095
2017-08-21T02:41:40.362Z,101096
2017-08-21T02:42:42.222Z,101094
2017-08-21T02:43:40.542Z,101094
2017-08-21T02:44:41.488Z,101098
2017-08-21T02:45:40.721Z,101091
2017-08-21T02:46:40.687Z,101093
2017-08-21T02:47:42.434Z,101096
2017-08-21T02:48:41.886Z,101086
2017-08-21T02:49:40.898Z,101087
2017-08-21T02:50:42.697Z,101088
2017-08-21T02:51:42.581Z,101084
2017-08-21T02:52:42.637Z,101089
2017-08-21T02:53:41.061Z,101088
2017-08-21T02:54:42.807Z,101087
2017-08-21T02:55:42.266Z,101088
2017-08-21T02:56:41.365Z,101085
2017-08-21T02:57:41.387Z,101083
2017-08-21T02:58:42.454Z,101084
2017-08-21T02:59:41.559Z,101083
2017-08-21T03:00:41.651Z,101084
2017-08-21T03:01:41.624Z,101081
2017-08-21T03:02:43.547Z,101086
2017-08-21T03:03:41.863Z,101080
2017-08-21T03:04:41.836Z,101083
2017-08-21T03:05:41.970Z,101088
2017-08-21T03:06:41.913Z,101089
2017-08-21T03:07:41.932Z,101090
2017-08-21T03:08:41.904Z,101089
2017-08-21T03:09:43.749Z,101090
2017-08-21T03:10:43.793Z,101094
2017-08-21T03:11:42.069Z,101097
2017-08-21T03:12:42.171Z,101087
2017-08-21T03:13:43.081Z,101092
2017-08-21T03:14:42.292Z,101092
2017-08-21T03:15:42.253Z,101092
2017-08-21T03:16:42.265Z,101087
2017-08-21T03:17:42.322Z,101091
2017-08-21T03:18:42.373Z,101091
2017-08-21T03:19:42.469Z,101092
2017-08-21T03:20:42.600Z,101093
2017-08-21T03:21:42.619Z,101088
2017-08-21T03:22:43.576Z,101093
2017-08-21T03:23:42.678Z,101089
2017-08-21T03:24:42.729Z,101096
2017-08-21T03:25:43.833Z,101094
2017-08-21T03:26:44.547Z,101093
2017-08-21T03:27:44.464Z,101090
2017-08-21T03:28:43.772Z,101084
2017-08-21T03:29:42.977Z,101089
2017-08-21T03:30:42.958Z,101090
2017-08-21T03:31:43.040Z,101089
2017-08-21T03:32:43.108Z,101088
2017-08-21T03:33:44.852Z,101088
2017-08-21T03:34:44.282Z,101095
2017-08-21T03:35:44.948Z,101089
2017-08-21T03:36:45.144Z,101091
2017-08-21T03:37:45.064Z,101091
2017-08-21T03:38:43.411Z,101092
2017-08-21T03:39:45.179Z,101093
2017-08-21T03:40:43.528Z,101096
2017-08-21T03:41:45.383Z,101098
2017-08-21T03:42:45.461Z,101100
2017-08-21T03:43:43.690Z,101098
2017-08-21T03:44:43.802Z,101106
2017-08-21T03:45:44.829Z,101104
2017-08-21T03:46:43.988Z,101105
2017-08-21T03:47:45.623Z,101102
2017-08-21T03:48:45.654Z,101103
2017-08-21T03:49:44.096Z,101107
2017-08-21T03:50:45.145Z,101108
2017-08-21T03:51:45.100Z,101110
2017-08-21T03:52:44.202Z,101112
2017-08-21T03:53:44.297Z,101112
2017-08-21T03:54:45.330Z,101106
2017-08-21T03:55:45.373Z,101113
2017-08-21T03:56:44.477Z,101109
2017-08-21T03:57:44.637Z,101111
2017-08-21T03:58:46.275Z,101110
2017-08-21T03:59:44.629Z,101114
2017-08-21T04:00:44.777Z,101112
2017-08-21T04:01:44.779Z,101101
2017-08-21T04:02:46.525Z,101109
2017-08-21T04:03:45.944Z,101103
2017-08-21T04:04:45.054Z,101108
2017-08-21T04:05:44.952Z,101109
2017-08-21T04:06:45.129Z,101105
2017-08-21T04:07:46.066Z,101113
2017-08-21T04:08:45.191Z,101110
2017-08-21T04:09:45.391Z,101109
2017-08-21T04:10:45.475Z,101109
2017-08-21T04:11:45.390Z,101110
2017-08-21T04:12:47.246Z,101110
2017-08-21T04:13:46.611Z,101107
2017-08-21T04:14:46.602Z,101107
2017-08-21T04:15:45.680Z,101108
2017-08-21T04:16:45.746Z,101107
2017-08-21T04:17:45.838Z,101113
2017-08-21T04:18:45.789Z,101109
2017-08-21T04:19:46.938Z,101119
2017-08-21T04:20:46.028Z,101115
2017-08-21T04:21:46.131Z,101120
2017-08-21T04:22:47.704Z,101122
2017-08-21T04:23:47.891Z,101118
2017-08-21T04:24:47.847Z,101121
2017-08-21T04:25:47.922Z,101117
2017-08-21T04:26:47.998Z,101123
2017-08-21T04:27:46.445Z,101127
2017-08-21T04:28:48.095Z,101123
2017-08-21T04:29:46.552Z,101122
2017-08-21T04:30:46.449Z,101119
2017-08-21T04:31:48.282Z,101123
2017-08-21T04:32:47.556Z,101124
2017-08-21T04:33:46.744Z,101126
2017-08-21T04:34:47.598Z,101127
2017-08-21T04:35:47.801Z,101125
2017-08-21T04:36:46.867Z,101124
2017-08-21T04:37:46.781Z,101127
2017-08-21T04:38:47.827Z,101127
2017-08-21T04:39:48.016Z,101132
2017-08-21T04:40:48.824Z,101129
2017-08-21T04:41:48.112Z,101129
2017-08-21T04:42:47.095Z,101129
2017-08-21T04:43:47.168Z,101129
2017-08-21T04:44:47.274Z,101129
2017-08-21T04:45:47.267Z,101124
2017-08-21T04:46:47.458Z,101122
2017-08-21T04:47:48.497Z,101121
2017-08-21T04:48:47.442Z,101116
2017-08-21T04:49:48.521Z,101120
2017-08-21T04:50:49.256Z,101121
2017-08-21T04:51:48.492Z,101116
2017-08-21T04:52:48.574Z,101118
2017-08-21T04:53:50.625Z,101120
2017-08-21T04:54:47.724Z,101119
2017-08-21T04:55:47.865Z,101130
2017-08-21T04:56:47.823Z,101118
2017-08-21T04:57:48.974Z,101124
2017-08-21T04:58:48.940Z,101123
2017-08-21T04:59:49.039Z,101121
2017-08-21T05:00:49.951Z,101123
2017-08-21T05:01:48.242Z,101121
2017-08-21T05:02:50.062Z,101122
2017-08-21T05:03:48.462Z,101120
2017-08-21T05:04:48.551Z,101122
2017-08-21T05:05:50.140Z,101124
2017-08-21T05:06:50.271Z,101122
2017-08-21T05:07:48.589Z,101126
2017-08-21T05:08:50.368Z,101121
2017-08-21T05:09:50.393Z,101119
2017-08-21T05:10:48.704Z,101127
2017-08-21T05:11:50.281Z,101123
2017-08-21T05:12:49.641Z,101124
2017-08-21T05:13:48.818Z,101121
2017-08-21T05:14:50.576Z,101119
2017-08-21T05:15:51.337Z,101120
2017-08-21T05:16:50.748Z,101127
2017-08-21T05:17:48.980Z,101124
2017-08-21T05:18:49.077Z,101126
2017-08-21T05:19:49.205Z,101128
2017-08-21T05:20:49.274Z,101125
2017-08-21T05:21:50.274Z,101127
2017-08-21T05:22:50.202Z,101126
2017-08-21T05:23:49.317Z,101126
2017-08-21T05:24:49.432Z,101126
2017-08-21T05:25:49.489Z,101128
2017-08-21T05:26:49.541Z,101127
2017-08-21T05:27:50.414Z,101128
2017-08-21T05:28:51.204Z,101129
2017-08-21T05:29:51.400Z,101130
2017-08-21T05:30:49.742Z,101132
2017-08-21T05:31:49.803Z,101133
2017-08-21T05:32:49.750Z,101128
2017-08-21T05:33:49.786Z,101131
2017-08-21T05:34:50.081Z,101122
2017-08-21T05:35:51.677Z,101128
2017-08-21T05:36:51.811Z,101135
2017-08-21T05:37:51.135Z,101134
2017-08-21T05:38:50.283Z,101129
2017-08-21T05:39:50.991Z,101127
2017-08-21T05:40:50.385Z,101128
2017-08-21T05:41:50.265Z,101128
2017-08-21T05:42:51.301Z,101130
2017-08-21T05:43:52.045Z,101130
2017-08-21T05:44:50.349Z,101125
2017-08-21T05:45:50.407Z,101132
2017-08-21T05:46:50.583Z,101136
2017-08-21T05:47:51.439Z,101136
2017-08-21T05:48:51.603Z,101137
2017-08-21T05:49:50.600Z,101140
2017-08-21T05:50:52.357Z,101145
2017-08-21T05:51:52.551Z,101141
2017-08-21T05:52:50.895Z,101141
2017-08-21T05:53:50.939Z,101140
2017-08-21T05:54:52.660Z,101145
2017-08-21T05:55:51.047Z,101142
2017-08-21T05:56:50.957Z,101146
2017-08-21T05:57:52.131Z,101145
2017-08-21T05:58:51.142Z,101147
2017-08-21T05:59:53.211Z,101148
2017-08-21T06:00:52.908Z,101147
2017-08-21T06:01:53.094Z,101151
2017-08-21T06:02:53.137Z,101150
2017-08-21T06:03:51.492Z,101149
2017-08-21T06:04:53.097Z,101153
2017-08-21T06:05:51.532Z,101155
2017-08-21T06:06:51.646Z,101146
2017-08-21T06:07:53.302Z,101151
2017-08-21T06:08:51.937Z,101152
2017-08-21T06:09:51.775Z,101153
2017-08-21T06:10:51.695Z,101154
2017-08-21T06:11:51.787Z,101152
2017-08-21T06:12:52.984Z,101151
2017-08-21T06:13:52.031Z,101157
2017-08-21T06:14:52.673Z,101156
2017-08-21T06:15:52.953Z,101160
2017-08-21T06:16:52.247Z,101156
2017-08-21T06:17:52.400Z,101156
2017-08-21T06:18:53.384Z,101157
2017-08-21T06:19:54.024Z,101149
2017-08-21T06:20:53.426Z,101155
2017-08-21T06:21:54.868Z,101151
2017-08-21T06:22:53.275Z,101158
2017-08-21T06:23:52.584Z,101150
2017-08-21T06:24:52.597Z,101154
2017-08-21T06:25:52.682Z,101155
2017-08-21T06:26:54.461Z,101156
2017-08-21T06:27:52.983Z,101154
2017-08-21T06:28:54.500Z,101157
2017-08-21T06:29:54.702Z,101155
2017-08-21T06:30:53.002Z,101155
2017-08-21T06:31:53.128Z,101153
2017-08-21T06:32:55.215Z,101152
2017-08-21T06:33:54.353Z,101153
2017-08-21T06:34:55.875Z,101156
2017-08-21T06:35:54.338Z,101158
2017-08-21T06:36:54.781Z,101158
2017-08-21T06:37:55.381Z,101157
2017-08-21T06:38:53.364Z,101158
2017-08-21T06:39:55.520Z,101161
2017-08-21T06:40:53.718Z,101157
2017-08-21T06:41:54.898Z,101157
2017-08-21T06:42:53.621Z,101153
2017-08-21T06:43:55.739Z,101161
2017-08-21T06:44:54.670Z,101161
2017-08-21T06:45:56.290Z,101161
2017-08-21T06:46:54.122Z,101163
2017-08-21T06:47:54.066Z,101168
2017-08-21T06:48:55.800Z,101166
2017-08-21T06:49:54.037Z,101166
2017-08-21T06:50:54.163Z,101162
2017-08-21T06:51:54.154Z,101163
2017-08-21T06:52:55.036Z,101164
2017-08-21T06:53:54.197Z,101158
2017-08-21T06:54:55.231Z,101159
2017-08-21T06:55:55.141Z,101159
2017-08-21T06:56:54.281Z,101156
2017-08-21T06:57:54.450Z,101156
2017-08-21T06:58:54.498Z,101151
2017-08-21T06:59:55.542Z,101153
2017-08-21T07:00:54.589Z,101159
2017-08-21T07:01:54.598Z,101157
2017-08-21T07:03:00.902Z,101160
2017-08-21T07:03:59.347Z,101164
2017-08-21T07:05:00.736Z,101167
2017-08-21T07:05:55.553Z,101170
2017-08-21T07:06:58.679Z,101169
2017-08-21T07:07:57.447Z,101169
2017-08-21T07:09:01.355Z,101170
2017-08-21T07:09:59.498Z,101167
2017-08-21T07:11:01.462Z,101173
2017-08-21T07:11:59.089Z,101172
2017-08-21T07:13:00.649Z,101169
2017-08-21T07:14:01.002Z,101175
2017-08-21T07:14:58.277Z,101168
2017-08-21T07:16:02.011Z,101173
2017-08-21T07:17:57.205Z,101177
2017-08-21T07:18:57.910Z,101171
2017-08-21T07:19:59.984Z,101170
2017-08-21T07:20:57.525Z,101169
2017-08-21T07:21:56.433Z,101168
2017-08-21T07:22:58.242Z,101165
2017-08-21T07:23:58.671Z,101164
2017-08-21T07:24:56.818Z,101165
2017-08-21T07:25:57.550Z,101161
2017-08-21T07:26:56.023Z,101163
2017-08-21T07:27:56.599Z,101163
2017-08-21T07:28:55.894Z,101161
2017-08-21T07:29:55.890Z,101163
2017-08-21T07:30:56.983Z,101167
2017-08-21T07:31:57.138Z,101166
2017-08-21T07:32:57.170Z,101168
2017-08-21T07:33:56.093Z,101164
2017-08-21T07:34:57.190Z,101164
2017-08-21T07:35:56.164Z,101172
2017-08-21T07:36:57.239Z,101167
2017-08-21T07:37:56.712Z,101167
2017-08-21T07:38:57.247Z,101169
2017-08-21T07:39:56.428Z,101165
2017-08-21T07:40:58.112Z,101160
2017-08-21T07:41:57.483Z,101164
2017-08-21T07:42:56.640Z,101161
2017-08-21T07:43:57.546Z,101164
2017-08-21T07:44:57.975Z,101163
2017-08-21T07:45:58.572Z,101164
2017-08-21T07:46:57.753Z,101164
2017-08-21T07:47:58.578Z,101166
2017-08-21T07:48:56.895Z,101165
2017-08-21T07:49:58.571Z,101167
2017-08-21T07:50:57.040Z,101172
2017-08-21T07:51:58.041Z,101170
2017-08-21T07:52:58.051Z,101174
2017-08-21T07:53:57.233Z,101175
2017-08-21T07:54:57.940Z,101178
2017-08-21T07:55:57.318Z,101178
2017-08-21T07:56:58.898Z,101175
2017-08-21T07:57:57.420Z,101178
2017-08-21T07:58:57.410Z,101179
2017-08-21T07:59:58.057Z,101178
2017-08-21T08:00:59.145Z,101179
2017-08-21T08:01:57.473Z,101181
2017-08-21T08:02:59.331Z,101179
2017-08-21T08:03:59.423Z,101175
2017-08-21T08:04:58.408Z,101180
2017-08-21T08:05:57.722Z,101184
2017-08-21T08:06:57.876Z,101178
2017-08-21T08:07:57.847Z,101182
2017-08-21T08:08:58.005Z,101179
2017-08-21T08:09:59.083Z,101178
2017-08-21T08:10:58.084Z,101173
2017-08-21T08:11:58.125Z,101178
2017-08-21T08:12:59.839Z,101173
2017-08-21T08:13:59.325Z,101179
2017-08-21T08:14:58.211Z,101178
2017-08-21T08:16:00.037Z,101179
2017-08-21T08:16:58.236Z,101180
2017-08-21T08:18:01.052Z,101181
2017-08-21T08:18:58.517Z,101181
2017-08-21T08:20:00.212Z,101181
2017-08-21T08:21:00.789Z,101181
2017-08-21T08:21:59.431Z,101177
2017-08-21T08:22:58.599Z,101181
2017-08-21T08:23:58.556Z,101181
2017-08-21T08:24:59.683Z,101180
2017-08-21T08:25:58.816Z,101183
2017-08-21T08:26:59.012Z,101183
2017-08-21T08:27:58.826Z,101180
2017-08-21T08:28:59.910Z,101182
2017-08-21T08:29:59.079Z,101182
2017-08-21T08:31:00.776Z,101178
2017-08-21T08:32:00.906Z,101172
2017-08-21T08:33:00.247Z,101179
2017-08-21T08:34:01.055Z,101176
2017-08-21T08:34:59.333Z,101180
2017-08-21T08:36:01.025Z,101180
2017-08-21T08:36:59.388Z,101181
2017-08-21T08:37:59.502Z,101178
2017-08-21T08:38:59.605Z,101176
2017-08-21T08:40:00.570Z,101177
2017-08-21T08:41:01.315Z,101177
2017-08-21T08:41:59.605Z,101176
2017-08-21T08:42:59.631Z,101177
2017-08-21T08:43:59.802Z,101177
2017-08-21T08:45:00.742Z,101178
2017-08-21T08:45:59.874Z,101176
2017-08-21T08:47:00.018Z,101178
2017-08-21T08:48:00.864Z,101179
2017-08-21T08:49:01.811Z,101174
2017-08-21T08:50:01.043Z,101180
2017-08-21T08:51:01.217Z,101181
2017-08-21T08:52:02.436Z,101185
2017-08-21T08:53:04.458Z,101185
2017-08-21T08:54:01.319Z,101189
2017-08-21T08:55:01.432Z,101186
2017-08-21T08:56:02.144Z,101192
2017-08-21T08:57:01.383Z,101182
2017-08-21T08:58:00.455Z,101178
2017-08-21T08:59:00.534Z,101181
2017-08-21T09:00:02.777Z,101187
2017-08-21T09:01:00.583Z,101181
2017-08-21T09:02:01.679Z,101187
2017-08-21T09:03:01.591Z,101154
2017-08-21T09:04:00.674Z,101183
2017-08-21T09:05:03.122Z,101182
2017-08-21T09:06:01.925Z,101184
2017-08-21T09:07:01.969Z,101187
2017-08-21T09:08:01.836Z,101186
2017-08-21T09:09:00.949Z,101189
2017-08-21T09:10:00.993Z,101190
2017-08-21T09:11:03.386Z,101181
2017-08-21T09:12:02.159Z,101183
2017-08-21T09:13:01.185Z,101186
2017-08-21T09:14:01.190Z,101180
2017-08-21T09:15:01.263Z,101186
2017-08-21T09:16:02.309Z,101186
2017-08-21T09:17:03.144Z,101177
2017-08-21T09:18:01.552Z,101182
2017-08-21T09:19:01.688Z,101186
2017-08-21T09:20:01.691Z,101183
2017-08-21T09:21:03.443Z,101190
2017-08-21T09:22:02.805Z,101189
2017-08-21T09:23:01.787Z,101185
2017-08-21T09:24:01.905Z,101193
2017-08-21T09:25:02.929Z,101191
2017-08-21T09:26:03.678Z,101193
2017-08-21T09:27:02.043Z,101193
2017-08-21T09:28:02.098Z,101183
2017-08-21T09:29:08.110Z,101187
2017-08-21T09:30:03.910Z,101185
2017-08-21T09:31:03.973Z,101177
2017-08-21T09:32:04.288Z,101186
2017-08-21T09:33:03.436Z,101184
2017-08-21T09:34:02.519Z,101179
2017-08-21T09:35:02.518Z,101185
2017-08-21T09:36:03.535Z,101184
2017-08-21T09:37:02.701Z,101184
2017-08-21T09:38:02.654Z,101181
2017-08-21T09:39:04.312Z,101185
2017-08-21T09:40:04.516Z,101185
2017-08-21T09:41:03.784Z,101186
2017-08-21T09:42:04.625Z,101186
2017-08-21T09:43:02.885Z,101184
2017-08-21T09:44:04.715Z,101183
2017-08-21T09:45:02.923Z,101187
2017-08-21T09:46:02.985Z,101186
2017-08-21T09:47:03.688Z,101180
2017-08-21T09:48:03.686Z,101183
2017-08-21T09:49:05.493Z,101186
2017-08-21T09:50:03.300Z,101185
2017-08-21T09:51:03.878Z,101188
2017-08-21T09:52:05.118Z,101181
2017-08-21T09:53:05.850Z,101183
2017-08-21T09:54:04.042Z,101177
2017-08-21T09:55:04.499Z,101176
2017-08-21T09:56:05.149Z,101173
2017-08-21T09:57:03.402Z,101177
2017-08-21T09:58:03.530Z,101174
2017-08-21T09:59:04.530Z,101177
2017-08-21T10:00:04.556Z,101175
2017-08-21T10:01:03.560Z,101170
2017-08-21T10:02:04.299Z,101175
2017-08-21T10:03:03.812Z,101176
2017-08-21T10:04:03.776Z,101173
2017-08-21T10:05:03.843Z,101173
2017-08-21T10:06:03.918Z,101178
2017-08-21T10:07:04.128Z,101172
2017-08-21T10:08:04.053Z,101177
2017-08-21T10:09:05.786Z,101171
2017-08-21T10:10:04.265Z,101171
2017-08-21T10:11:06.618Z,101173
2017-08-21T10:12:05.361Z,101172
2017-08-21T10:13:06.208Z,101176
2017-08-21T10:14:06.698Z,101169
2017-08-21T10:15:04.580Z,101174
2017-08-21T10:16:04.521Z,101172
2017-08-21T10:17:04.666Z,101170
2017-08-21T10:18:05.505Z,101173
2017-08-21T10:19:04.704Z,101170
2017-08-21T10:20:06.976Z,101172
2017-08-21T10:21:05.629Z,101169
2017-08-21T10:22:06.351Z,101161
2017-08-21T10:23:04.867Z,101166
2017-08-21T10:24:06.474Z,101168
2017-08-21T10:25:04.902Z,101171
2017-08-21T10:26:04.913Z,101172
2017-08-21T10:27:06.872Z,101172
2017-08-21T10:28:06.120Z,101172
2017-08-21T10:29:05.168Z,101168
2017-08-21T10:30:06.725Z,101171
2017-08-21T10:31:05.144Z,101175
2017-08-21T10:32:05.334Z,101175
2017-08-21T10:33:05.383Z,101168
2017-08-21T10:34:07.090Z,101175
2017-08-21T10:35:06.292Z,101175
2017-08-21T10:36:05.427Z,101173
2017-08-21T10:37:05.464Z,101180
2017-08-21T10:38:05.457Z,101182
2017-08-21T10:39:06.450Z,101173
2017-08-21T10:40:06.499Z,101165
2017-08-21T10:41:05.609Z,101175
2017-08-21T10:42:07.265Z,101174
2017-08-21T10:43:07.785Z,101174
2017-08-21T10:44:05.700Z,101179
2017-08-21T10:45:05.624Z,101169
2017-08-21T10:46:05.665Z,101175
2017-08-21T10:47:05.695Z,101169
2017-08-21T10:48:06.728Z,101171
2017-08-21T10:49:07.410Z,101171
2017-08-21T10:50:07.683Z,101168
2017-08-21T10:51:06.079Z,101171
2017-08-21T10:52:07.707Z,101162
2017-08-21T10:53:06.168Z,101165
2017-08-21T10:54:07.921Z,101165
2017-08-21T10:55:07.869Z,101162
2017-08-21T10:56:07.971Z,101159
2017-08-21T10:57:07.991Z,101160
2017-08-21T10:58:06.396Z,101157
2017-08-21T10:59:08.513Z,101160
2017-08-21T11:00:08.954Z,101162
2017-08-21T11:01:09.484Z,101158
2017-08-21T11:02:09.211Z,101162
2017-08-21T11:03:09.224Z,101158
2017-08-21T11:04:12.920Z,101160
2017-08-21T11:05:09.115Z,101157
2017-08-21T11:07:15.025Z,101158
2017-08-21T11:08:09.403Z,101154
2017-08-21T11:09:11.640Z,101159
2017-08-21T11:10:09.852Z,101158
2017-08-21T11:11:09.841Z,101153
2017-08-21T11:13:13.911Z,101151
2017-08-21T11:14:12.447Z,101147
2017-08-21T11:15:09.666Z,101150
2017-08-21T11:16:11.976Z,101144
2017-08-21T11:17:09.222Z,101149
2017-08-21T11:18:10.859Z,101141
2017-08-21T11:19:11.668Z,101150
2017-08-21T11:20:11.974Z,101143
2017-08-21T11:22:11.733Z,101141
2017-08-21T11:23:12.471Z,101138
2017-08-21T11:24:11.228Z,101137
2017-08-21T11:25:11.833Z,101139
2017-08-21T11:26:13.338Z,101134
2017-08-21T11:27:15.823Z,101139
2017-08-21T11:28:13.654Z,101134
2017-08-21T11:29:10.241Z,101133
2017-08-21T11:30:08.871Z,101130
2017-08-21T11:31:10.214Z,101138
2017-08-21T11:32:09.937Z,101136
2017-08-21T11:33:09.347Z,101129
2017-08-21T11:34:10.537Z,101129
2017-08-21T11:35:08.242Z,101127
2017-08-21T11:36:09.980Z,101132
2017-08-21T11:37:08.516Z,101124
2017-08-21T11:38:09.433Z,101121
2017-08-21T11:39:10.168Z,101123
2017-08-21T11:40:08.768Z,101118
2017-08-21T11:41:09.301Z,101118
2017-08-21T11:42:12.377Z,101114
2017-08-21T11:43:11.540Z,101112
2017-08-21T11:44:11.917Z,101110
2017-08-21T11:45:12.183Z,101116
2017-08-21T11:46:09.534Z,101107
2017-08-21T11:47:10.828Z,101103
2017-08-21T11:48:09.622Z,101103
2017-08-21T11:49:11.288Z,101107
2017-08-21T11:50:09.849Z,101108
2017-08-21T11:51:09.525Z,101107
2017-08-21T11:52:10.657Z,101103
2017-08-21T11:53:09.887Z,101103
2017-08-21T11:54:09.245Z,101099
2017-08-21T11:55:09.825Z,101097
2017-08-21T11:56:10.945Z,101096
2017-08-21T11:57:11.097Z,101098
2017-08-21T11:58:10.482Z,101092
2017-08-21T11:59:10.007Z,101087
2017-08-21T12:00:10.527Z,101085
2017-08-21T12:01:10.081Z,101086
2017-08-21T12:02:09.663Z,101089
2017-08-21T12:03:09.857Z,101089
2017-08-21T12:04:09.742Z,101087
2017-08-21T12:05:11.408Z,101084
2017-08-21T12:06:09.867Z,101085
2017-08-21T12:07:09.793Z,101085
2017-08-21T12:08:10.901Z,101081
2017-08-21T12:09:10.627Z,101082
2017-08-21T12:10:12.895Z,101085
2017-08-21T12:11:11.740Z,101086
2017-08-21T12:12:11.134Z,101085
2017-08-21T12:13:11.431Z,101084
2017-08-21T12:14:10.212Z,101084
2017-08-21T12:15:11.847Z,101086
2017-08-21T12:16:11.280Z,101086
2017-08-21T12:17:12.216Z,101081
2017-08-21T12:18:10.371Z,101087
2017-08-21T12:19:10.834Z,101087
2017-08-21T12:20:12.835Z,101080
2017-08-21T12:21:15.829Z,101086
2017-08-21T12:22:10.412Z,101080
2017-08-21T12:23:12.411Z,101081
2017-08-21T12:24:10.695Z,101083
2017-08-21T12:25:13.498Z,101082
2017-08-21T12:26:10.575Z,101081
2017-08-21T12:27:10.712Z,101083
2017-08-21T12:28:12.395Z,101082
2017-08-21T12:29:12.239Z,101086
2017-08-21T12:30:12.837Z,101087
2017-08-21T12:31:11.722Z,101081
2017-08-21T12:32:11.996Z,101084
2017-08-21T12:33:12.195Z,101091